Calumet, IA

05:29 PM CDT del 01 Agosto 2014 (GMT -0500)
Orange City Municipal (KORC) Alt. 1414 ft | 42.99 °N, 96.06 °W | Change Station

Current weather conditions updated 14 minutes ago

Scattered Clouds
Nubi sparse
82 °F
Sembra 82 °F
N
0
Vento Variabile Vento da Nord

Per domani non si prevedono cambiamenti della temperatura rispetto a oggi.

Oggi
Massima -- | Minima -- °F
--% Possibilità di precip.
Ieri
Massima -- | Minima -- °F
Precip. -- in
6:13 AM 8:43 PM
Luna crescente, 30% visible
Pressione 30.10 in
Visibilità 10.0 miglia
Nuvole Nubi sparse 6000 ft
Punto di rugiada 52 °F
Umidità 35%
Piovosità 0.00 in
Spessore del manto nevoso Non disponibile.
Raggi UV 4 fuori da 12
Polline 6.20 fuori da 12
Qualità dell'aria Non disponibile.
Flu Activity Non disponibile.
METAR KORC 012215Z AUTO 00000KT 10SM SCT060 28/11 A3010 RMK AO2

More Conditions Fewer Conditions

Pressione 30.10 in
Visibilità 10.0 miglia
Nuvole Nubi sparse 6000 ft
Punto di rugiada 52 °F
Umidità 35%
Piovosità 0.00 in
Spessore del manto nevoso Non disponibile.
Raggi UV 4 fuori da 12
Polline 6.20 fuori da 12
Qualità dell'aria Non disponibile.
Flu Activity Non disponibile.
METAR KORC 012215Z AUTO 00000KT 10SM SCT060 28/11 A3010 RMK AO2

More Conditions Fewer Conditions

10-Day Weather Forecast

Almanac

Astronomia

Aug. 01, 2014 Alba Tramonto
Ora attuale 06:13 CDT 20:43 CDT
Crepuscolo civile 05:41 CDT 21:15 CDT
Crepuscolo nautico 05:00 CDT 21:55 CDT
Crepuscolo astronomico 04:15 CDT 22:40 CDT
Luna 11:47 CDT 23:18 CDT
Estensione della luce visibile 15h 34m
Lunghezza del giorno
14h 29m
Tomorrow will be 2m 15s shorter.
Luna crescente, 30% of the Moon is Illuminated
Oggi
Luna crescente
Ago 3
Primo quarto
Ago 10
Luna piena
Ago 17
Ultimo quarto
Ago 25
Nuovo

Gli estremi di oggi

State Highs State Lows

Community

WunderPhotos

Upload Photos

1,739,723 foto caricate!

Nearby

Profondità neve

Stazione Profondità Altitudine
Non sono state evidenziate nuove nevicate

Attività sismica

Città  Distanza Mag. Data & Ora
Non sono state riportate attività sismiche nelle vicinanze.
Minimo Magnitudo Mostrato è 2.5.

Temperature delle acque costiere

Località Temperatura
Nessun dato dalle stazioni

Stazioni meteo nelle vicinanze

Ubicazione della stazione Temp. Indice di calore Punto di rugiada Umidità Vento Precip. Alt. Aggiornato Tipo
Wilson Street, Sheldon, IA 80.7 °F 84 °F 71 °F 72% Sud  a  0.0 mph 0.00 in / hr 1447 ft 5:29 PM CDT Sequenza Rapida

Show More Stations Show Fewer Stations